Data for 07/14/2007

Time Sea-Level Adjusted Pressure Absolute Pressure Temperature Relative Humidity Dew Point   
(mb) (inHg) (mb) (inHg) (C) (F) (%) (C) (F)
00:05 1022 30.18 851 25.13 25.1 77.1 27 5 41.1
00:10 1022 30.18 851 25.13 25.1 77.1 27 5.1 41.1
00:15 1022 30.18 851 25.13 25 77 27 5 41
00:20 1022 30.18 851 25.13 24.9 76.9 27 4.9 40.9
00:25 1022 30.18 851 25.13 25 77.1 27 5 41
00:30 1022 30.18 851 25.13 25 77.1 27 4.9 40.9
00:35 1022 30.18 851 25.13 25 77 27 5.1 41.1
00:40 1022 30.18 851 25.13 24.9 76.7 27 4.9 40.9
00:45 1022 30.18 851 25.13 24.9 76.9 27 4.9 40.9
00:50 1022 30.18 851 25.13 25 76.9 27 5 41
00:55 1022 30.18 851 25.13 24.7 76.5 28 5.1 41.2
01:00 1022 30.18 851 25.13 24.6 76.3 28 5.2 41.4
01:05 1022 30.18 851 25.13 24.5 76.2 28 5 40.9
01:10 1022 30.18 851 25.13 24.7 76.4 28 5.1 41.2
01:15 1022 30.18 851 25.13 24.5 76 28 5.2 41.4
01:20 1022 30.18 851 25.13 24.2 75.6 29 5.2 41.3
01:25 1022 30.18 851 25.13 24.2 75.6 29 5.2 41.4
01:30 1022 30.18 851 25.13 24.2 75.5 29 5.2 41.4
01:35 1022 30.18 851 25.13 24.1 75.4 29 5.1 41.3
01:40 1022 30.18 851 25.13 24.1 75.3 29 5.1 41.2
01:45 1022 30.18 851 25.13 24.2 75.5 29 5.1 41.1
01:50 1022 30.18 851 25.13 24.1 75.3 29 5.2 41.4
01:55 1022 30.18 851 25.13 24 75.2 29 5 41
02:00 1022 30.18 851 25.13 24.2 75.5 29 5 41
02:05 1022 30.18 851 25.13 24.3 75.7 28 5 40.9
02:10 1022 30.18 851 25.13 24.3 75.7 29 5.1 41.2
02:15 1022 30.18 851 25.13 24.1 75.5 29 5.1 41.2
02:20 1022 30.18 851 25.13 24 75.3 29 5.1 41.3
02:25 1022 30.18 851 25.13 24.1 75.3 28 4.9 40.8
02:30 1022 30.18 851 25.13 24.2 75.5 29 5.1 41.2
02:35 1022 30.18 851 25.13 24.1 75.3 29 5.1 41.2
02:40 1022 30.18 851 25.13 24 75.2 29 5.2 41.3
02:45 1022 30.18 851 25.13 23.8 74.9 30 5.2 41.4
02:50 1022 30.18 851 25.13 23.7 74.7 30 5.2 41.4
02:55 1022 30.18 851 25.13 23.6 74.5 30 5.2 41.3
03:00 1022 30.18 851 25.13 23.6 74.5 30 5.3 41.5
03:05 1022 30.18 851 25.13 23.5 74.2 30 5.3 41.6
03:10 1022 30.18 851 25.13 23.4 74.1 31 5.3 41.6
03:15 1022 30.18 852 25.16 23.2 73.8 31 5.4 41.7
03:20 1022 30.18 852 25.16 23.1 73.6 32 5.6 42.1
03:25 1023 30.21 852 25.16 22.9 73.3 35 6.8 44.2
03:30 1023 30.21 852 25.16 22.4 72.2 35 6.2 43.1
03:35 1023 30.21 852 25.16 22.3 72.2 36 6.8 44.2
03:40 1023 30.21 853 25.19 20.9 69.5 41 7.4 45.3
03:45 1024 30.24 853 25.19 20.9 69.6 38 6.4 43.5
03:50 1024 30.24 853 25.19 22 71.7 34 5.6 42
03:55 1024 30.24 853 25.19 22.7 72.9 33 5.8 42.5
04:00 1024 30.24 853 25.19 23 73.4 33 6.1 43
04:05 1024 30.24 853 25.19 23.2 73.7 32 5.9 42.6
04:10 1024 30.24 853 25.19 23.4 74.1 33 6.5 43.6
04:15 1024 30.24 853 25.19 23.4 74.2 34 6.8 44.3
04:20 1024 30.24 854 25.22 23.3 73.9 35 7.2 45
04:25 1024 30.24 854 25.22 23 73.3 36 7.4 45.3
04:30 1025 30.27 854 25.22 22.6 72.7 39 8 46.5
04:35 1025 30.27 854 25.22 22.3 72.1 42 8.8 47.9
04:40 1025 30.27 854 25.22 21.9 71.4 49 10.9 51.6
04:45 1025 30.27 854 25.22 21.2 70.2 49 10.3 50.5
04:50 1025 30.27 854 25.22 21.1 70 49 10 50.1
04:55 1025 30.27 854 25.22 21.1 70 46 9.2 48.5
05:00 1025 30.27 854 25.22 21.4 70.5 49 10.4 50.7
05:05 1025 30.27 854 25.22 20.7 69.3 53 10.9 51.5
05:10 1025 30.27 854 25.22 20.3 68.6 54 10.7 51.3
05:15 1025 30.27 854 25.22 20.2 68.3 54 10.6 51
05:20 1024 30.24 854 25.22 20.1 68.3 54 10.7 51.3
05:25 1024 30.24 853 25.19 20.1 68.1 53 10.4 50.7
05:30 1024 30.24 853 25.19 20 67.9 54 10.6 51.1
05:35 1024 30.24 853 25.19 20.1 68.2 54 10.7 51.3
05:40 1024 30.24 853 25.19 20.1 68.2 53 10.5 50.9
05:45 1024 30.24 853 25.19 20.4 68.7 48 9.1 48.4
05:50 1023 30.21 853 25.19 21 69.9 44 8.5 47.3
05:55 1023 30.21 852 25.16 21.9 71.4 43 9 48.2
06:00 1023 30.21 852 25.16 22.2 72 40 8.2 46.8
06:05 1023 30.21 852 25.16 22.2 71.9 40 8.2 46.8
06:10 1023 30.21 852 25.16 21.7 71.1 45 9.5 49.1
06:15 1022 30.18 851 25.13 21.1 69.9 46 9.1 48.4
06:20 1022 30.18 851 25.13 20.7 69.3 48 9.6 49.2
06:25 1022 30.18 851 25.13 20.5 68.8 48 9.1 48.4
06:30 1022 30.18 851 25.13 20.7 69.3 45 8.6 47.4
06:35 1022 30.18 852 25.16 21.2 70.1 43 8.3 46.9
06:40 1022 30.18 852 25.16 21.5 70.7 41 8 46.5
06:45 1022 30.18 852 25.16 21.7 71 41 8 46.3
06:50 1022 30.18 851 25.13 21.6 71 41 7.9 46.1
06:55 1023 30.21 852 25.16 21.8 71.2 40 7.6 45.7
07:00 1023 30.21 852 25.16 22 71.5 40 7.9 46.2
07:05 1023 30.21 852 25.16 22.1 71.7 39 7.7 45.9
07:10 1023 30.21 852 25.16 22.2 72 40 8.1 46.5
07:15 1023 30.21 852 25.16 22.1 71.8 40 8.1 46.6
07:20 1023 30.21 852 25.16 22.1 71.8 40 8.1 46.6
07:25 1023 30.21 852 25.16 22.2 71.9 40 8.1 46.5
07:30 1023 30.21 852 25.16 22.4 72.2 40 8.1 46.7
07:35 1023 30.21 852 25.16 22.4 72.3 40 8.4 47
07:40 1023 30.21 852 25.16 22.3 72.1 41 8.4 47.2
07:45 1023 30.21 852 25.16 22.3 72.2 41 8.4 47.2
07:50 1023 30.21 852 25.16 22.5 72.5 40 8.2 46.8
07:55 1023 30.21 852 25.16 22.6 72.7 40 8.5 47.3
08:00 1023 30.21 852 25.16 22.6 72.7 41 9 48.3
08:05 1023 30.21 852 25.16 22.4 72.4 47 10.6 51.2
08:10 1023 30.21 852 25.16 22.2 72 49 11 51.9
08:15 1023 30.21 852 25.16 22.2 72 49 11.1 51.9
08:20 1023 30.21 853 25.19 22.1 71.8 49 11.1 51.9
08:25 1023 30.21 853 25.19 22.2 72 47 10.6 51.1
08:30 1023 30.21 853 25.19 22.2 71.9 51 11.6 52.9
08:35 1024 30.24 853 25.19 22.2 72 51 11.6 53
08:40 1024 30.24 853 25.19 22.5 72.4 42 9.1 48.4
08:45 1024 30.24 853 25.19 22.7 72.9 46 10.6 51.1
08:50 1024 30.24 853 25.19 22.9 73.1 44 10 50.1
08:55 1024 30.24 853 25.19 23 73.5 42 9.8 49.6
09:00 1024 30.24 853 25.19 23.4 74.2 43 10.3 50.5
09:05 1024 30.24 853 25.19 24 75.2 42 10.6 51
09:10 1024 30.24 853 25.19 24 75.1 41 10.2 50.4
09:15 1024 30.24 853 25.19 23.8 74.8 38 8.8 47.8
09:20 1023 30.21 853 25.19 24 75.1 41 10 50.1
09:25 1023 30.21 853 25.19 24.2 75.6 42 10.6 51
09:30 1023 30.21 852 25.16 24 75.3 43 11 51.7
09:35 1023 30.21 852 25.16 23.7 74.7 44 10.9 51.7
09:40 1023 30.21 852 25.16 23.7 74.7 46 11.6 52.9
09:45 1023 30.21 852 25.16 23.9 74.9 44 11.1 52.1
09:50 1023 30.21 852 25.16 23.9 74.9 42 10.2 50.4
09:55 1023 30.21 852 25.16 24.2 75.6 44 11.5 52.7
10:00 1023 30.21 852 25.16 24.6 76.2 41 10.6 51.1
10:05 1023 30.21 852 25.16 24.7 76.5 41 10.9 51.7
10:10 1023 30.21 852 25.16 24.9 76.9 43 11.8 53.2
10:15 1023 30.21 852 25.16 25.3 77.6 40 10.9 51.6
10:20 1023 30.21 852 25.16 25.7 78.2 35 9.1 48.4
10:25 1023 30.21 852 25.16 26.2 79.1 35 9.8 49.6
10:30 1023 30.21 852 25.16 26.3 79.3 32 8.6 47.5
10:35 1023 30.21 852 25.16 26.5 79.7 32 8.7 47.7
10:40 1023 30.21 852 25.16 27.1 80.8 34 10.2 50.3
10:45 1023 30.21 852 25.16 27.2 81 33 9.6 49.3
10:50 1023 30.21 852 25.16 27.2 80.9 31 8.9 48
10:55 1023 30.21 852 25.16 28 82.5 29 8.8 47.9
11:00 1023 30.21 852 25.16 28.5 83.3 26 7.3 45.2
11:05 1023 30.21 852 25.16 29.2 84.5 24 6.9 44.4
11:10 1023 30.21 852 25.16 30.2 86.3 22 6.8 44.2
11:15 1023 30.21 852 25.16 30.8 87.5 22 7 44.7
11:20 1023 30.21 852 25.16 30.9 87.7 22 7.3 45.2
11:25 1023 30.21 852 25.16 29.8 85.7 25 8.1 46.6
11:30 1023 30.21 852 25.16 29 84.2 25 7.1 44.7
11:35 1023 30.21 852 25.16 29.3 84.7 25 7.6 45.6
11:40 1023 30.21 852 25.16 29.7 85.4 25 7.8 46
11:45 1023 30.21 852 25.16 30.4 86.6 23 7.3 45.1
11:50 1023 30.21 852 25.16 31.1 88 22 7.3 45.2
11:55 1023 30.21 852 25.16 31.4 88.5 21 6.9 44.4
12:00 1023 30.21 852 25.16 31.5 88.8 20 5.9 42.6
12:05 1023 30.21 852 25.16 31.5 88.8 20 6.4 43.6
12:10 1023 30.21 852 25.16 31.4 88.5 21 6.7 44
12:15 1023 30.21 852 25.16 31 87.9 21 6.2 43.2
12:20 1023 30.21 852 25.16 31.1 88 21 6.4 43.6
12:25 1022 30.18 852 25.16 31.7 89.1 21 7.2 45
12:30 1022 30.18 852 25.16 31.1 88 23 7.9 46.2
12:35 1022 30.18 852 25.16 29.7 85.5 22 6.3 43.4
12:40 1022 30.18 851 25.13 30.1 86.2 22 6.2 43.1
12:45 1022 30.18 851 25.13 30.7 87.2 21 5.9 42.6
12:50 1022 30.18 851 25.13 30.8 87.4 21 6.2 43.1
12:55 1022 30.18 851 25.13 29.8 85.7 21 5.8 42.4
13:00 1022 30.18 851 25.13 30.1 86.1 20 5.3 41.6
13:05 1022 30.18 851 25.13 31.3 88.4 20 5.8 42.5
13:10 1022 30.18 851 25.13 31.8 89.3 20 6.2 43.1
13:15 1022 30.18 851 25.13 32.5 90.6 18 5.6 42
13:20 1022 30.18 851 25.13 32.6 90.7 18 5.4 41.8
13:25 1022 30.18 851 25.13 32.8 91 17 5.3 41.6
13:30 1022 30.18 851 25.13 32.4 90.4 18 5.4 41.6
13:35 1022 30.18 851 25.13 32.4 90.3 18 5.7 42.2
13:40 1022 30.18 851 25.13 32.1 89.8 18 4.9 40.9
13:45 1022 30.18 851 25.13 32.8 91 16 4 39.2
13:50 1022 30.18 851 25.13 33.2 91.8 15 3.9 39
13:55 1022 30.18 851 25.13 33.5 92.2 16 4.4 40
14:00 1021 30.15 851 25.13 33.1 91.5 18 6.1 43
14:05 1021 30.15 851 25.13 33.3 92 16 4.7 40.5
14:10 1021 30.15 850 25.1 33.6 92.5 16 4.4 39.8
14:15 1021 30.15 850 25.1 33.3 92 15 3.7 38.7
14:20 1021 30.15 850 25.1 32.7 90.8 16 3.8 38.8
14:25 1021 30.15 850 25.1 32.4 90.3 16 4.1 39.5
14:30 1021 30.15 850 25.1 32.4 90.4 15 3.1 37.6
14:35 1021 30.15 850 25.1 33 91.4 15 2.9 37.3
14:40 1021 30.15 850 25.1 34.1 93.3 14 3.1 37.6
14:45 1021 30.15 850 25.1 34.3 93.8 15 4.5 40.1
14:50 1021 30.15 850 25.1 34.4 93.9 15 4 39.2
14:55 1021 30.15 850 25.1 33.4 92.1 15 3.3 37.9
15:00 1021 30.15 850 25.1 33.1 91.5 14 2.4 36.3
15:05 1020 30.12 850 25.1 33.7 92.7 13 2.2 35.9
15:10 1020 30.12 850 25.1 33.4 92.1 14 2.7 36.8
15:15 1020 30.12 849 25.07 33.4 92.1 14 2.4 36.4
15:20 1020 30.12 849 25.07 33 91.4 14 2.5 36.5
15:25 1020 30.12 849 25.07 32.8 91.1 14 2 35.6
15:30 1020 30.12 849 25.07 32.9 91.2 15 3.2 37.8
15:35 1020 30.12 849 25.07 32.1 89.8 15 2.6 36.7
15:40 1020 30.12 849 25.07 32.2 90 15 2.6 36.7
15:45 1020 30.12 849 25.07 32.1 89.8 16 3.2 37.7
15:50 1020 30.12 849 25.07 31.5 88.6 16 3.2 37.7
15:55 1020 30.12 849 25.07 31.8 89.2 16 2.8 37.1
16:00 1020 30.12 849 25.07 31.6 88.8 16 2.9 37.2
16:05 1020 30.12 849 25.07 31.3 88.3 16 2.8 37.1
16:10 1020 30.12 849 25.07 31.4 88.5 17 4 39.1
16:15 1020 30.12 849 25.07 31.6 89 17 4.3 39.8
16:20 1020 30.12 849 25.07 31.5 88.7 17 4 39.2
16:25 1020 30.12 849 25.07 31.2 88.2 20 5.9 42.7
16:30 1020 30.12 849 25.07 31.1 87.9 18 4.4 39.9
16:35 1020 30.12 849 25.07 30.3 86.6 26 9.2 48.6
16:40 1020 30.12 850 25.1 27.7 81.8 30 8.9 48.1
16:45 1020 30.12 850 25.1 25.9 78.7 32 8.3 46.9
16:50 1021 30.15 850 25.1 25.3 77.5 35 8.8 47.8
16:55 1021 30.15 850 25.1 24.4 75.9 40 10.3 50.5
17:00 1021 30.15 850 25.1 24.1 75.4 38 9.1 48.3
17:05 1021 30.15 850 25.1 24.7 76.4 34 8.1 46.6
17:10 1021 30.15 850 25.1 25.3 77.6 31 7.4 45.4
17:15 1020 30.12 850 25.1 25.9 78.6 31 7.9 46.2
17:20 1020 30.12 849 25.07 26.1 78.9 28 6.4 43.6
17:25 1020 30.12 849 25.07 26.3 79.3 28 6.6 43.9
17:30 1020 30.12 849 25.07 26.4 79.5 27 6.3 43.3
17:35 1020 30.12 850 25.1 26.5 79.6 28 6.7 44
17:40 1020 30.12 850 25.1 26.5 79.8 28 6.8 44.3
17:45 1021 30.15 850 25.1 26.4 79.5 31 8.3 47
17:50 1021 30.15 850 25.1 26.3 79.3 32 8.3 47
17:55 1020 30.12 850 25.1 26.6 79.8 27 6.5 43.8
18:00 1020 30.12 849 25.07 27.4 81.4 27 7.1 44.8
18:05 1020 30.12 849 25.07 27.1 80.7 23 4.3 39.7
18:10 1021 30.15 850 25.1 27.7 81.9 21 3.7 38.7
18:15 1021 30.15 850 25.1 27.8 82 27 7.3 45.1
18:20 1021 30.15 850 25.1 27.1 80.7 28 7.1 44.8
18:25 1021 30.15 850 25.1 26.6 79.8 27 6.5 43.8
18:30 1021 30.15 850 25.1 26.8 80.3 27 6.4 43.6
18:35 1021 30.15 850 25.1 26.9 80.5 27 6.4 43.6
18:40 1021 30.15 850 25.1 26.6 79.9 28 6.9 44.4
18:45 1021 30.15 850 25.1 26.5 79.7 27 6.4 43.6
18:50 1021 30.15 850 25.1 26.8 80.2 26 6 42.8
18:55 1021 30.15 850 25.1 27.1 80.8 25 5.9 42.7
19:00 1021 30.15 850 25.1 27.3 81.1 26 6.6 44
19:05 1021 30.15 850 25.1 27 80.7 28 7.5 45.4
19:10 1021 30.15 850 25.1 26.5 79.7 30 7.9 46.3
19:15 1021 30.15 850 25.1 26.1 79 29 7.1 44.9
19:20 1021 30.15 850 25.1 26 78.9 28 6.6 43.9
19:25 1021 30.15 850 25.1 25.9 78.6 29 6.7 44.1
19:30 1021 30.15 850 25.1 25.7 78.2 30 6.9 44.4
19:35 1021 30.15 850 25.1 25.6 78 29 6.6 43.8
19:40 1021 30.15 850 25.1 25.8 78.4 28 6 42.7
19:45 1021 30.15 850 25.1 25.9 78.7 29 6.7 44.1
19:50 1021 30.15 850 25.1 26.1 78.9 27 6.1 42.9
19:55 1021 30.15 850 25.1 26.1 78.9 27 6.1 43
20:00 1021 30.15 850 25.1 26 78.8 27 5.9 42.7
20:05 1021 30.15 850 25.1 26.1 78.9 27 6.1 43
20:10 1021 30.15 850 25.1 25.8 78.5 28 6.3 43.3
20:15 1021 30.15 850 25.1 25.7 78.3 29 6.4 43.5
20:20 1021 30.15 850 25.1 25.6 78.1 29 6.5 43.6
20:25 1021 30.15 850 25.1 25.7 78.2 28 6.3 43.4
20:30 1021 30.15 850 25.1 25.8 78.4 28 6 42.8
20:35 1021 30.15 851 25.13 25.8 78.4 28 6.3 43.4
20:40 1021 30.15 851 25.13 25.6 78.1 28 6.2 43.1
20:45 1021 30.15 851 25.13 25.5 77.9 29 6.3 43.3
20:50 1021 30.15 851 25.13 25.3 77.5 30 6.6 43.9
20:55 1021 30.15 851 25.13 25 76.9 31 6.7 44.1
21:00 1021 30.15 851 25.13 25 77 31 6.7 44.1
21:05 1021 30.15 851 25.13 24.7 76.5 32 6.9 44.5
21:10 1021 30.15 851 25.13 24.4 75.8 32 7 44.6
21:15 1021 30.15 850 25.1 24 75.2 33 7 44.6
21:20 1021 30.15 850 25.1 23.8 74.8 33 6.9 44.5
21:25 1021 30.15 850 25.1 23.6 74.5 34 7.1 44.9
21:30 1021 30.15 850 25.1 23.4 74.1 35 7.2 44.9
21:35 1021 30.15 850 25.1 23.3 73.9 35 7.2 45
21:40 1021 30.15 850 25.1 23.2 73.7 36 7.3 45.1
21:45 1021 30.15 850 25.1 23 73.4 37 7.7 45.8
21:50 1021 30.15 850 25.1 22.8 73 37 7.7 45.8
21:55 1021 30.15 850 25.1 22.7 72.9 37 7.6 45.8
22:00 1021 30.15 850 25.1 22.6 72.7 38 7.8 46
22:05 1021 30.15 850 25.1 22.4 72.4 39 7.8 46.1
22:10 1021 30.15 850 25.1 22.3 72.2 39 7.8 46.1
22:15 1021 30.15 850 25.1 22.2 72 39 7.7 45.9
22:20 1021 30.15 850 25.1 22.2 71.9 39 7.7 45.8
22:25 1021 30.15 850 25.1 22.1 71.8 39 7.6 45.7
22:30 1021 30.15 850 25.1 22.1 71.8 39 7.6 45.7
22:35 1021 30.15 850 25.1 22.1 71.8 39 7.6 45.6
22:40 1020 30.12 850 25.1 22.1 71.7 38 7.3 45.1
22:45 1021 30.15 850 25.1 22.1 71.8 38 7.3 45.2
22:50 1020 30.12 850 25.1 22 71.7 38 7.4 45.3
22:55 1021 30.15 850 25.1 21.9 71.4 39 7.5 45.5
23:00 1021 30.15 850 25.1 21.7 71 40 7.7 45.9
23:05 1021 30.15 850 25.1 21.6 70.9 40 7.7 45.9
23:10 1021 30.15 850 25.1 21.5 70.7 41 7.9 46.3
23:15 1021 30.15 850 25.1 21.4 70.4 41 7.9 46.2
23:20 1021 30.15 850 25.1 21.4 70.5 41 7.7 45.9
23:25 1021 30.15 850 25.1 21.3 70.3 45 9.1 48.3
23:30 1021 30.15 850 25.1 21 69.8 45 8.8 47.9
23:35 1021 30.15 850 25.1 20.8 69.5 45 8.8 47.8
23:40 1021 30.15 850 25.1 20.6 69.2 43 7.8 46
23:45 1021 30.15 850 25.1 20.5 69 46 8.7 47.6
23:50 1021 30.15 850 25.1 20.5 68.8 43 7.8 46
23:55 1021 30.15 850 25.1 20.5 68.9 43 7.6 45.6
24:00 1021 30.15 850 25.1 20.6 69 43 7.6 45.6